TAF KMEI
KMEI 081740Z 0818/0918 35008KT P6SM BKN015 FM081830 35005KT P6SM SKC FM091200 17003KT P6SM BKN010 FM091600 17006KT P6SM BKN015=
METAR KMEI
WC KMEI
WS KMEI
WV KMEI